עמוד ראשי
תמונות לווין תחזית 15-יוםאקליםתחזית ים סופות טרופיות ברק שדות תעופהשאלות נפוצות עלון אודות
מזג אוויר : אירופה אפריקה אמריקה הצפונית אמריקה הדרומית אסיה אוסטרליה-אוקיאניה אחר
שפות איש קשר

שטוטגרט, גרמניה

Echterdingen

קו רוחב: 48-41N, קו אורך: 009-13E, גובה: 396 m


METAR: EDDS 212350Z 29008KT 9999 FEW006 SCT012 12/10 Q1020
TAF: EDDS 212300Z 2200/2224 30006KT 9999 SCT020 TEMPO 2200/2208 BKN012 BECMG 2208/2210 30012KT TEMPO 2213/2217 30015G25KT SHRA BKN025TCU BECMG 2216/2218 28005KT

זמן: 02:07 (00:07 UTC)

תצפית מזג אוויר נוכחית

הדו"ח נערך לפני 17 דקות, בשעה 23:50 UTC  
רוח 08 קשר מכיוון מערב/צפון-מערב
טמפרטורת 12°C
לחות 88%
לחץ 1020 hPa
ראות 10 km או יותר
מעט עננים בגובה 600 ft
עננים פזורים בגובה 1200 ft

שינוי יחידות

תחזית

הדו"ח נערך לפני 01 שעה ו 07 דקות, בשעה 23:00 UTC  
תחזית בתוקף מ 22 ב 00 UTC עד 22 ב 24 UTC
רוח 06 קשר מכיוון מערב/צפון-מערב
ראות 10 km או יותר
עננים פזורים בגובה 2000 ft
זמנית מ -
22 ב 00 UTC עד 22 ב 08 UTC
עננים בינוניים בגובה 1200 ft
יעשה מ
22 ב 08 UTC עד 22 ב 10 UTC
רוח 12 קשר מכיוון מערב/צפון-מערב
זמנית מ -
22 ב 13 UTC עד 22 ב 17 UTC
רוח 15 קשר מכיוון מערב/צפון-מערב עם משבים עד 25 קשר
עננים בינוניים בגובה 2500 ft , קומולוס מיגדלי.
ממטרי גשם
יעשה מ
22 ב 16 UTC עד 22 ב 18 UTC
רוח 05 קשר מכיוון מערב
המידע באתר זה מותנה של תניית פטור
מזג אוויר : אירופה אפריקה אמריקה הצפונית אמריקה הדרומית אסיה אוסטרליה-אוקיאניה אחר
תמונות לווין תחזית 15-יוםאקליםתחזית ים סופות טרופיות ברק שדות תעופהשאלות נפוצות שפות איש קשר עלון אודות